Flight Track Log - Related Links

Times and Time Zones

All times are in EDT time to prevent confusion due to time zone crossing. See the AAY842 flight status page for this flight to view local times or setup timezone preferences in your user account.

Time Position Orientation Groundspeed Altitude Reporting Facility
EDT Latitude Longitude Course Direction KTS MPH feet Rate Location/Type
03:24PM 27.9333 -82.7000 North 155 178 1,200  Level Tampa TRACON
03:25PM 28.0167 -82.6667 19° North 253 291 3,500 2,106 Climbing Tampa TRACON
03:26PM 28.0833 -82.6500 12° North 273 314 6,500 2,663 Climbing Tampa TRACON
03:28PM 28.2144 -82.6358 North 300 345 10,600 2,063 Climbing Jacksonville Center
03:29PM 28.7191 -82.6354 North  Level FlightAware Approximate
03:29PM 28.3019 -82.6261 North 300 345 12,000  Level Jacksonville Center
03:30PM 28.4022 -82.6142 North 333 383 14,200 2,100 Climbing Jacksonville Center
03:31PM 28.5003 -82.6019 North 345 397 16,200 1,850 Climbing Jacksonville Center
03:32PM 28.6044 -82.6136 354° North 361 415 17,900 1,750 Climbing Jacksonville Center
03:33PM 28.7089 -82.6275 353° North 367 422 19,700 1,800 Climbing Jacksonville Center
03:34PM 28.8133 -82.6389 355° North 372 428 21,500 1,700 Climbing Jacksonville Center
03:35PM 28.9261 -82.6483 356° North 382 440 23,100 1,500 Climbing Jacksonville Center
03:36PM 29.0367 -82.6575 356° North 394 453 24,500 1,150 Climbing Jacksonville Center
03:37PM 29.1556 -82.6692 355° North 411 473 25,400 1,050 Climbing Jacksonville Center
03:38PM 29.2767 -82.6808 355° North 422 486 26,600 1,300 Climbing Jacksonville Center
03:39PM 29.4000 -82.6922 355° North 433 498 28,000 1,200 Climbing Jacksonville Center
03:40PM 29.5169 -82.7064 354° North 451 519 29,000 1,150 Climbing Jacksonville Center
03:41PM 29.6422 -82.7158 356° North 457 526 30,300 1,400 Climbing Jacksonville Center
03:42PM 29.7675 -82.7228 357° North 457 526 31,800 1,350 Climbing Jacksonville Center
03:43PM 29.8886 -82.7272 358° North 451 519 33,000 1,100 Climbing Jacksonville Center
03:44PM 30.0139 -82.7367 356° North 445 512 34,000 1,000 Climbing Jacksonville Center
03:45PM 30.1369 -82.7389 359° North 440 506 35,000 1,000 Climbing Jacksonville Center
03:46PM 30.2561 -82.7339 North 440 506 36,000 950 Climbing Jacksonville Center
03:47PM 30.3686 -82.6567 31° Northeast 440 506 36,900 500 Climbing Jacksonville Center
03:48PM 30.4750 -82.5792 32° Northeast 435 501 37,000 50 Climbing Jacksonville Center
03:49PM 30.5897 -82.5208 24° Northeast 440 506 37,000  Level Jacksonville Center
03:50PM 30.7189 -82.4697 19° North 445 512 37,000  Level Jacksonville Center
03:51PM 30.8378 -82.4231 19° North 445 512 37,000  Level Jacksonville Center
03:52PM 30.9544 -82.3789 18° North 445 512 37,000  Level Jacksonville Center
03:53PM 31.0733 -82.3297 20° North 445 512 37,000  Level Jacksonville Center
03:54PM 31.1900 -82.2831 19° North 445 512 37,000  Level Jacksonville Center
03:55PM 31.3089 -82.2433 16° North 445 512 37,000  Level Jacksonville Center
03:56PM 31.4275 -82.1914 20° North 445 512 37,000 -50 Level Jacksonville Center
03:57PM 31.5442 -82.1467 18° North 435 501 36,900  Descending Jacksonville Center
03:58PM 31.6631 -82.0944 20° North 441 507 37,000 50 Climbing Jacksonville Center
03:59PM 31.7817 -82.0469 19° North 447 514 37,000  Level Jacksonville Center
04:00PM 31.8858 -82.0044 19° North 447 514 37,000  Level Jacksonville Center
04:01PM 32.0147 -81.9517 19° North 442 509 37,000  Level Jacksonville Center
04:02PM 32.1208 -81.8992 23° Northeast 449 517 37,000  Level Jacksonville Center
04:03PM 32.2497 -81.8386 22° Northeast 449 517 37,000  Level Jacksonville Center
04:04PM 32.3683 -81.7833 21° North 449 517 37,000  Level Jacksonville Center
04:05PM 32.4703 -81.7328 23° Northeast 449 517 37,000  Level Jacksonville Center
04:06PM 32.5992 -81.6719 22° Northeast 449 517 37,000  Level Jacksonville Center
04:07PM 32.7175 -81.6136 23° Northeast 449 517 37,000  Level Jacksonville Center
04:08PM 32.8317 -81.5600 22° Northeast 449 517 37,000  Level Jacksonville Center
04:09PM 32.9481 -81.5039 22° Northeast 449 517 37,000  Level Jacksonville Center
04:15PM 33.6629 -81.1501 22° Northeast 451 519 37,000  Level FlightAware ADS-B
04:15PM 33.7203 -81.1217 23° Northeast 450 518 37,000  Level FlightAware ADS-B
04:16PM 33.7778 -81.0932 22° Northeast 449 517 37,000  Level FlightAware ADS-B
04:17PM 33.8627 -81.0511 23° Northeast 449 517 37,000  Level FlightAware ADS-B
04:17PM 33.9216 -81.0225 22° Northeast 449 517 37,000  Level FlightAware ADS-B
04:18PM 33.9798 -80.9948 22° Northeast 449 517 37,000  Level FlightAware ADS-B
04:18PM 34.0598 -80.9565 22° Northeast 449 517 37,000  Level FlightAware ADS-B
04:19PM 34.1426 -80.9165 22° Northeast 448 516 37,000  Level FlightAware ADS-B
04:20PM 34.2101 -80.8841 22° Northeast 447 514 37,000  Level FlightAware ADS-B
04:21PM 34.3166 -80.8325 22° Northeast 446 513 37,000  Level FlightAware ADS-B
04:21PM 34.3840 -80.7999 22° Northeast 445 512 37,000  Level FlightAware ADS-B
04:22PM 34.4634 -80.7616 22° Northeast 444 511 37,000  Level FlightAware ADS-B
04:22PM 34.5203 -80.7338 22° Northeast 445 512 37,000  Level FlightAware ADS-B
04:23PM 34.6420 -80.6744 22° Northeast 446 513 37,000  Level FlightAware ADS-B
04:24PM 34.7170 -80.6378 22° Northeast 446 513 37,000  Level FlightAware ADS-B
04:25PM 34.7755 -80.6091 22° Northeast 446 513 37,000  Level FlightAware ADS-B
04:25PM 34.8430 -80.5760 22° Northeast 446 513 37,000  Level FlightAware ADS-B
04:27PM 34.9789 -80.5100 22° Northeast 446 513 37,000  Level Atlanta Center
04:28PM 35.0942 -80.4544 22° Northeast 446 513 37,000  Level Atlanta Center
04:29PM 35.2114 -80.3961 22° Northeast 446 513 37,000  Level Atlanta Center
04:30PM 35.3267 -80.3375 23° Northeast 446 513 37,000  Level Atlanta Center
04:31PM 35.4394 -80.2789 23° Northeast 446 513 37,000  Level Atlanta Center
04:32PM 35.5567 -80.2225 21° North 446 513 37,000  Level Atlanta Center
04:34PM 35.7872 -80.1036 23° Northeast 446 513 37,000  Level Washington Center
04:35PM 35.8956 -80.0561 20° North 446 513 37,000  Level Washington Center
04:36PM 36.0122 -79.9983 22° Northeast 441 507 37,000  Level Washington Center
04:37PM 36.1214 -79.9222 29° Northeast 441 507 37,000  Level Washington Center
04:38PM 36.2306 -79.8483 29° Northeast 447 514 37,000  Level Washington Center
04:39PM 36.3472 -79.7931 21° North 442 509 37,000  Level Washington Center
04:40PM 36.4728 -79.7272 23° Northeast 442 509 37,000  Level Washington Center
04:41PM 36.5894 -79.6689 22° Northeast 442 509 37,000  Level Washington Center
04:42PM 36.7042 -79.6128 21° North 442 509 37,000  Level Washington Center
04:43PM 36.8103 -79.5586 22° Northeast 442 509 37,000  Level Washington Center
04:44PM 36.9267 -79.5022 21° North 442 509 37,000  Level Washington Center
04:45PM 37.0433 -79.4456 21° North 442 509 37,000  Level Washington Center
04:46PM 37.1686 -79.3817 22° Northeast 442 509 37,000  Level Washington Center
04:47PM 37.2831 -79.3219 23° Northeast 437 503 37,000  Level Washington Center
04:48PM 37.4017 -79.2625 22° Northeast 442 509 37,000  Level Washington Center
04:49PM 37.5203 -79.2078 20° North 442 509 37,000  Level Washington Center
04:55PM 38.2107 -78.8505 22° Northeast 444 511 37,000  Level FlightAware ADS-B (KCHO)
04:56PM 38.3203 -78.7967 22° Northeast 429 494 37,000  Level Washington Center
04:57PM 38.4322 -78.7378 22° Northeast 429 494 37,000  Level Washington Center
05:02PM 39.0580 -78.4064 22° Northeast 447 514 37,000  Level FlightAware ADS-B (KDAA)
05:02PM 39.1167 -78.3753 22° Northeast 447 514 37,000  Level FlightAware ADS-B (KDAA)
05:03PM 39.1758 -78.3439 22° Northeast 446 513 37,000  Level FlightAware ADS-B (KDAA)
05:03PM 39.2327 -78.3135 22° Northeast 446 513 37,000  Level FlightAware ADS-B (KDAA)
05:04PM 39.2939 -78.2808 22° Northeast 446 513 37,000  Level FlightAware ADS-B (KDAA)
05:06PM 39.5614 -78.1370 22° Northeast 448 516 37,000  Level FlightAware ADS-B (KDAA)
05:07PM 39.6311 -78.1006 22° Northeast 447 514 37,000  Level Cleveland Center
05:08PM 39.7461 -78.0378 23° Northeast 447 514 37,000  Level Cleveland Center
05:09PM 39.8617 -77.9753 23° Northeast 447 514 37,000 -387 Level Cleveland Center
05:10PM 39.9764 -77.9122 23° Northeast 447 514 36,200 -871 Descending Cleveland Center
05:11PM 40.0925 -77.8475 23° Northeast 448 516 35,200 -1,328 Descending Cleveland Center
05:16PM 40.6793 -77.4355 43° Northeast 425 489 27,900 -1,287 Descending FlightAware ADS-B
05:17PM 40.7517 -77.3464 43° Northeast 423 487 27,200 -443 Descending Cleveland Center
05:18PM 40.8539 -77.2822 25° Northeast 412 474 27,000 -792 Descending Cleveland Center
05:25PM 41.5060 -76.9510 21° North 384 442 21,500 -885 Descending FlightAware ADS-B
05:25PM 41.5550 -76.9260 20° North 382 440 21,100 -554 Descending FlightAware ADS-B
05:26PM 41.6130 -76.8960 21° North 383 441 20,900 -963 Descending FlightAware ADS-B
05:26PM 41.6860 -76.8580 21° North 374 430 19,800 -1,653 Descending FlightAware ADS-B
05:27PM 41.7660 -76.8170 21° North 365 420 18,200 -1,328 Descending FlightAware ADS-B
05:28PM 41.8770 -76.7590 21° North 351 404 17,100 -673 Descending FlightAware ADS-B
05:29PM 41.9200 -76.7370 21° North 352 405 17,100  Level FlightAware ADS-B
05:29PM 41.9700 -76.7100 21° North 349 402 17,100  Level FlightAware ADS-B
05:30PM 41.9900 -76.6870 53° Northeast 361 415 17,100  Level FlightAware ADS-B
05:31PM 42.0150 -76.5690 80° East 367 422 17,100 -31 Level FlightAware ADS-B
05:33PM 42.1690 -76.3950 13° North 347 399 17,000 -719 Descending FlightAware ADS-B
05:35PM 42.3590 -76.3380 North 332 382 13,900 -1,541 Descending FlightAware ADS-B
05:35PM 42.4030 -76.3400 357° North 325 374 13,200 -1,731 Descending FlightAware ADS-B
05:36PM 42.4430 -76.3430 357° North 323 372 12,400 -1,652 Descending FlightAware ADS-B
05:37PM 42.5040 -76.3410 15° North 322 371 11,300 -987 Descending FlightAware ADS-B
05:37PM 42.5520 -76.3180 17° North 313 360 11,100 -231 Descending FlightAware ADS-B
05:38PM 42.6383 -76.2817 17° North 318 366 10,900 -564 Descending Boston Center
05:39PM 42.7003 -76.2261 33° Northeast 297 342 10,000 -1,065 Descending Boston Center
05:39PM 42.7078 -76.2211 26° Northeast 306 352 9,800 -2,100 Descending Boston Center
05:40PM 42.7736 -76.1592 35° Northeast 290 334 7,900 -2,129 Descending Boston Center
05:40PM 42.7883 -76.1469 31° Northeast 294 338 7,600 -1,522 Descending Boston Center
05:41PM 42.8461 -76.0978 32° Northeast 290 334 6,200 -1,512 Descending Boston Center
05:42PM 42.9247 -76.0372 29° Northeast 285 328 4,500 -1,039 Descending Boston Center
05:43PM 42.9900 -76.0058 19° North 241 277 4,000 -623 Descending Boston Center
05:44PM 43.0364 -75.9972 North 203 234 3,400 -818 Descending Boston Center
05:45PM 43.0500 -75.9939 10° North 236 272 3,100 -1,400 Descending Boston Center
05:45PM 43.0878 -76.0103 342° North 160 184 2,000 -1,258 Descending Boston Center
05:46PM 43.0942 -76.0122 347° North 199 229 1,800 -885 Descending Boston Center
05:46PM 43.1083 -76.0519 296° West 137 158 1,100 -787 Descending Boston Center
05:47PM 43.1108 -76.0589 296° West 167 192 1,000 -519 Descending Boston Center
05:48PM 43.1086 -76.1106 267° West 148 170 400 -581 Descending Boston Center

Login

Don't have an account? Register now (free) for customized features, flight alerts, and more!